createdAt,value
2018-12-11T00:00:31.018Z,21.30
2018-12-11T00:02:59.666Z,24.77
2018-12-11T00:05:28.551Z,16.43
2018-12-11T00:07:57.206Z,17.97
2018-12-11T00:10:25.842Z,17.60
2018-12-11T00:12:54.474Z,22.30
2018-12-11T00:15:23.097Z,22.43
2018-12-11T00:17:51.714Z,20.20
2018-12-11T00:20:20.313Z,23.07
2018-12-11T00:22:48.906Z,14.73
2018-12-11T00:25:17.537Z,19.87
2018-12-11T00:27:46.164Z,19.27
2018-12-11T00:30:14.791Z,15.87
2018-12-11T00:32:43.390Z,19.20
2018-12-11T00:35:11.990Z,16.17
2018-12-11T00:37:40.606Z,20.10
2018-12-11T00:40:09.400Z,17.43
2018-12-11T00:42:37.985Z,17.17
2018-12-11T00:45:06.859Z,21.67
2018-12-11T00:47:35.502Z,17.33
2018-12-11T00:50:04.469Z,19.80
2018-12-11T00:52:33.102Z,16.17
2018-12-11T00:55:01.712Z,19.13
2018-12-11T00:57:30.443Z,19.37
2018-12-11T00:59:59.055Z,17.63
2018-12-11T01:02:27.746Z,20.40
2018-12-11T01:04:56.371Z,17.33
2018-12-11T01:07:24.984Z,24.90
2018-12-11T01:09:53.629Z,20.37
2018-12-11T01:12:22.254Z,18.00
2018-12-11T01:14:50.862Z,22.47
2018-12-11T01:17:19.491Z,19.17
2018-12-11T01:19:48.097Z,20.07
2018-12-11T01:22:16.727Z,14.60
2018-12-11T01:24:45.337Z,31.50
2018-12-11T01:27:13.982Z,24.73
2018-12-11T01:29:42.589Z,16.43
2018-12-11T01:32:11.196Z,24.20
2018-12-11T01:34:39.807Z,20.40
2018-12-11T01:37:08.425Z,20.70
2018-12-11T01:39:37.522Z,19.33
2018-12-11T01:42:06.405Z,16.97
2018-12-11T01:44:35.030Z,23.83
2018-12-11T01:47:04.410Z,19.67
2018-12-11T01:49:33.046Z,15.30
2018-12-11T01:52:01.689Z,30.23
2018-12-11T01:54:30.326Z,15.50
2018-12-11T01:56:58.933Z,17.73
2018-12-11T01:59:28.257Z,25.30
2018-12-11T02:01:56.862Z,18.23
2018-12-11T02:04:25.480Z,27.00
2018-12-11T02:06:54.138Z,17.30
2018-12-11T02:09:22.784Z,24.80
2018-12-11T02:11:51.443Z,19.20
2018-12-11T02:14:20.214Z,23.77
2018-12-11T02:16:48.836Z,15.00
2018-12-11T02:19:17.466Z,18.40
2018-12-11T02:21:46.099Z,15.40
2018-12-11T02:24:14.730Z,20.37
2018-12-11T02:26:43.356Z,22.93
2018-12-11T02:29:11.975Z,18.37
2018-12-11T02:31:40.594Z,22.07
2018-12-11T02:34:09.213Z,20.47
2018-12-11T02:36:37.859Z,23.17
2018-12-11T02:39:08.121Z,17.23
2018-12-11T02:41:36.814Z,12.10
2018-12-11T02:44:05.541Z,19.10
2018-12-11T02:46:34.129Z,21.73
2018-12-11T02:49:02.743Z,19.47
2018-12-11T02:51:31.334Z,20.30
2018-12-11T02:53:59.943Z,21.03
2018-12-11T02:56:28.671Z,20.63
2018-12-11T02:58:57.280Z,20.33
2018-12-11T03:01:25.879Z,23.67
2018-12-11T03:03:54.772Z,27.33
2018-12-11T03:06:23.406Z,19.97
2018-12-11T03:08:52.015Z,22.23
2018-12-11T03:11:20.766Z,16.40
2018-12-11T03:13:49.367Z,17.90
2018-12-11T03:16:18.115Z,20.47
2018-12-11T03:18:46.717Z,17.53
2018-12-11T03:21:15.326Z,23.07
2018-12-11T03:23:43.931Z,22.30
2018-12-11T03:26:12.543Z,19.53
2018-12-11T03:28:41.150Z,14.67
2018-12-11T03:31:09.766Z,13.77
2018-12-11T03:33:38.394Z,13.43
2018-12-11T03:36:07.001Z,17.67
2018-12-11T03:38:35.617Z,20.20
2018-12-11T03:41:05.140Z,13.97
2018-12-11T03:43:34.613Z,11.63
2018-12-11T03:46:03.230Z,18.30
2018-12-11T03:48:31.830Z,14.50
2018-12-11T03:51:00.459Z,15.40
2018-12-11T03:53:29.068Z,16.33
2018-12-11T03:55:57.692Z,16.03
2018-12-11T03:58:26.309Z,15.60
2018-12-11T04:00:54.936Z,15.20
2018-12-11T04:03:23.724Z,19.97
2018-12-11T04:05:55.127Z,17.27
2018-12-11T04:08:23.736Z,26.97
2018-12-11T04:10:52.335Z,16.13
2018-12-11T04:13:20.932Z,19.47
2018-12-11T04:15:49.551Z,14.50
2018-12-11T04:18:18.742Z,15.33
2018-12-11T04:20:47.363Z,15.67
2018-12-11T04:23:16.001Z,14.67
2018-12-11T04:25:44.607Z,18.60
2018-12-11T04:28:13.219Z,17.03
2018-12-11T04:30:41.833Z,14.33
2018-12-11T04:33:10.479Z,14.20
2018-12-11T04:35:39.099Z,13.93
2018-12-11T04:38:07.678Z,16.30
2018-12-11T04:40:36.303Z,15.83
2018-12-11T04:43:04.958Z,12.63
2018-12-11T04:45:33.701Z,16.57
2018-12-11T04:48:02.917Z,15.03
2018-12-11T04:50:31.536Z,18.07
2018-12-11T04:53:00.146Z,16.20
2018-12-11T04:55:28.841Z,17.90
2018-12-11T04:57:57.432Z,16.10
2018-12-11T05:00:29.972Z,18.00
2018-12-11T05:02:58.594Z,15.17
2018-12-11T05:05:27.206Z,13.77
2018-12-11T05:07:55.814Z,16.10
2018-12-11T05:10:24.506Z,19.27
2018-12-11T05:12:53.105Z,19.10
2018-12-11T05:15:21.734Z,14.00
2018-12-11T05:17:50.343Z,14.00
2018-12-11T05:20:18.941Z,16.80
2018-12-11T05:22:47.533Z,13.60
2018-12-11T05:25:16.113Z,12.83
2018-12-11T05:27:44.702Z,13.20
2018-12-11T05:30:13.315Z,11.30
2018-12-11T05:32:41.925Z,9.37
2018-12-11T05:35:11.117Z,15.67
2018-12-11T05:37:39.750Z,15.97
2018-12-11T05:40:08.516Z,12.13
2018-12-11T05:42:37.122Z,15.30
2018-12-11T05:45:06.014Z,14.47
2018-12-11T05:47:34.641Z,8.47
2018-12-11T05:50:03.467Z,11.13
2018-12-11T05:52:32.087Z,14.47
2018-12-11T05:55:00.685Z,13.27
2018-12-11T05:57:29.330Z,11.00
2018-12-11T05:59:57.934Z,16.17
2018-12-11T06:02:26.545Z,14.90
2018-12-11T06:04:55.175Z,113.97
2018-12-11T06:07:23.826Z,182.67
2018-12-11T06:09:52.457Z,161.97
2018-12-11T06:12:21.087Z,82.87
2018-12-11T06:14:49.717Z,128.03
2018-12-11T06:17:18.331Z,79.03
2018-12-11T06:19:46.982Z,66.37
2018-12-11T06:22:15.604Z,51.03
2018-12-11T06:24:44.235Z,31.40
2018-12-11T06:27:12.858Z,43.10
2018-12-11T06:29:41.498Z,40.97
2018-12-11T06:32:10.101Z,47.20
2018-12-11T06:34:38.734Z,30.13
2018-12-11T06:37:07.372Z,23.77
2018-12-11T06:39:36.001Z,11.17
2018-12-11T06:42:04.977Z,23.10
2018-12-11T06:44:33.713Z,18.60
2018-12-11T06:47:02.365Z,20.23
2018-12-11T06:49:31.009Z,20.87
2018-12-11T06:51:59.820Z,19.50
2018-12-11T06:54:28.530Z,16.87
2018-12-11T06:56:57.162Z,19.00
2018-12-11T06:59:25.797Z,18.17
2018-12-11T07:01:54.413Z,21.13
2018-12-11T07:04:23.064Z,17.13
2018-12-11T07:06:51.705Z,15.37
2018-12-11T07:09:20.335Z,13.10
2018-12-11T07:11:48.959Z,14.67
2018-12-11T07:14:17.614Z,16.67
2018-12-11T07:16:46.306Z,19.93
2018-12-11T07:19:14.997Z,14.70
2018-12-11T07:21:43.753Z,17.17
2018-12-11T07:24:12.452Z,13.00
2018-12-11T07:26:41.081Z,25.57
2018-12-11T07:29:09.704Z,14.87
2018-12-11T07:31:38.332Z,22.00
2018-12-11T07:34:06.958Z,12.97
2018-12-11T07:36:35.597Z,20.37
2018-12-11T07:39:05.502Z,11.97
2018-12-11T07:41:34.129Z,19.67
2018-12-11T07:44:02.920Z,14.63
2018-12-11T07:46:31.543Z,16.00
2018-12-11T07:49:00.176Z,21.67
2018-12-11T07:51:28.807Z,17.90
2018-12-11T07:53:57.547Z,18.27
2018-12-11T07:56:26.146Z,12.07
2018-12-11T07:58:54.790Z,14.60
2018-12-11T08:01:23.421Z,14.33
2018-12-11T08:03:52.063Z,14.60
2018-12-11T08:06:20.671Z,16.50
2018-12-11T08:08:49.306Z,15.70
2018-12-11T08:11:17.926Z,9.90
2018-12-11T08:13:46.561Z,21.10
2018-12-11T08:16:16.246Z,16.77
2018-12-11T08:18:44.877Z,11.67
2018-12-11T08:21:13.525Z,14.67
2018-12-11T08:23:42.231Z,14.87
2018-12-11T08:26:11.137Z,23.30
2018-12-11T08:28:40.444Z,16.07
2018-12-11T08:31:09.264Z,19.47
2018-12-11T08:33:37.898Z,15.10
2018-12-11T08:36:06.547Z,14.30
2018-12-11T08:38:35.176Z,13.27
2018-12-11T08:41:03.797Z,13.80
2018-12-11T08:43:32.403Z,17.60
2018-12-11T08:46:01.026Z,14.57
2018-12-11T08:48:29.635Z,15.70
2018-12-11T08:50:58.234Z,18.67
2018-12-11T08:53:27.057Z,17.77
2018-12-11T08:55:55.713Z,17.13
2018-12-11T08:58:24.838Z,15.80
2018-12-11T09:00:53.610Z,18.33
2018-12-11T09:03:22.222Z,15.27
2018-12-11T09:05:50.844Z,14.03
2018-12-11T09:08:19.482Z,16.73
2018-12-11T09:10:48.079Z,17.80
2018-12-11T09:13:16.685Z,15.97
2018-12-11T09:15:45.304Z,15.53
2018-12-11T09:18:13.910Z,17.10
2018-12-11T09:20:42.530Z,15.50
2018-12-11T09:23:11.142Z,10.30
2018-12-11T09:25:39.768Z,18.17
2018-12-11T09:28:11.191Z,13.23
2018-12-11T09:30:39.032Z,16.80
2018-12-11T09:33:07.664Z,17.30
2018-12-11T09:35:36.259Z,15.10
2018-12-11T09:38:04.873Z,15.80
2018-12-11T09:40:33.501Z,15.53
2018-12-11T09:43:02.103Z,14.03
2018-12-11T09:45:30.693Z,16.37
2018-12-11T09:47:59.286Z,15.87
2018-12-11T09:50:27.886Z,18.00
2018-12-11T09:52:56.507Z,17.57
2018-12-11T09:55:25.131Z,19.00
2018-12-11T09:57:53.723Z,12.33
2018-12-11T10:00:25.714Z,17.07
2018-12-11T10:02:53.003Z,14.43
2018-12-11T10:05:21.633Z,15.17
2018-12-11T10:07:50.264Z,15.67
2018-12-11T10:10:18.911Z,11.13
2018-12-11T10:12:47.499Z,13.60
2018-12-11T10:15:16.154Z,14.67
2018-12-11T10:17:44.775Z,13.50
2018-12-11T10:20:14.101Z,12.90
2018-12-11T10:22:42.843Z,13.77
2018-12-11T10:25:11.528Z,10.57
2018-12-11T10:27:40.181Z,11.60
2018-12-11T10:30:09.969Z,11.53
2018-12-11T10:32:38.605Z,10.80
2018-12-11T10:35:07.541Z,9.10
2018-12-11T10:37:36.145Z,9.53
2018-12-11T10:40:05.123Z,10.07
2018-12-11T10:42:33.723Z,12.60
2018-12-11T10:45:02.356Z,7.67
2018-12-11T10:47:31.010Z,9.83
2018-12-11T10:49:59.677Z,9.97
2018-12-11T10:52:28.298Z,12.47
2018-12-11T10:54:56.920Z,8.77
2018-12-11T10:57:25.556Z,12.23
2018-12-11T10:59:54.174Z,14.57
2018-12-11T11:02:25.684Z,14.27
2018-12-11T11:04:54.315Z,9.47
2018-12-11T11:07:23.099Z,10.20
2018-12-11T11:09:51.752Z,11.60
2018-12-11T11:12:20.415Z,11.03
2018-12-11T11:14:49.168Z,11.77
2018-12-11T11:17:18.454Z,11.67
2018-12-11T11:19:47.055Z,11.70
2018-12-11T11:22:15.691Z,12.50
2018-12-11T11:24:44.321Z,15.23
2018-12-11T11:27:12.954Z,10.47
2018-12-11T11:29:41.589Z,13.60
2018-12-11T11:32:10.220Z,12.00
2018-12-11T11:34:40.954Z,10.47
2018-12-11T11:37:09.575Z,11.23
2018-12-11T11:39:38.186Z,13.50
2018-12-11T11:42:06.821Z,11.27
2018-12-11T11:44:35.458Z,10.27
2018-12-11T11:47:04.239Z,11.17
2018-12-11T11:49:32.891Z,13.43
2018-12-11T11:52:01.538Z,10.63
2018-12-11T11:54:30.175Z,14.67
2018-12-11T11:56:58.811Z,11.40
2018-12-11T11:59:27.450Z,16.90
2018-12-11T12:01:56.340Z,12.77
2018-12-11T12:04:24.962Z,11.13
2018-12-11T12:06:53.615Z,11.57
2018-12-11T12:09:22.230Z,14.83
2018-12-11T12:11:50.909Z,10.57
2018-12-11T12:14:19.530Z,12.17
2018-12-11T12:16:48.163Z,18.43
2018-12-11T12:19:16.777Z,17.77
2018-12-11T12:21:45.384Z,16.30
2018-12-11T12:24:14.021Z,18.13
2018-12-11T12:26:42.644Z,14.67
2018-12-11T12:29:11.259Z,12.23
2018-12-11T12:31:39.896Z,19.03
2018-12-11T12:34:08.542Z,12.10
2018-12-11T12:36:37.189Z,11.70
2018-12-11T12:39:08.361Z,11.70
2018-12-11T12:41:37.006Z,14.73
2018-12-11T12:44:05.626Z,9.90
2018-12-11T12:46:34.404Z,9.40
2018-12-11T12:49:03.017Z,17.27
2018-12-11T12:51:31.790Z,15.17
2018-12-11T12:54:00.426Z,13.80
2018-12-11T12:56:29.510Z,15.93
2018-12-11T12:58:58.165Z,10.23
2018-12-11T13:01:26.782Z,11.00
2018-12-11T13:03:55.618Z,19.27
2018-12-11T13:06:24.541Z,8.17
2018-12-11T13:08:54.328Z,15.80
2018-12-11T13:11:22.964Z,13.90
2018-12-11T13:13:51.595Z,9.63
2018-12-11T13:16:20.242Z,14.43
2018-12-11T13:18:48.879Z,12.33
2018-12-11T13:21:17.522Z,17.13
2018-12-11T13:23:46.146Z,8.57
2018-12-11T13:26:14.793Z,12.03
2018-12-11T13:28:43.412Z,12.07
2018-12-11T13:31:12.033Z,9.67
2018-12-11T13:33:40.672Z,12.17
2018-12-11T13:36:09.334Z,15.20
2018-12-11T13:38:37.958Z,16.50
2018-12-11T13:41:06.615Z,10.40
2018-12-11T13:43:35.380Z,12.03
2018-12-11T13:46:04.169Z,14.80
2018-12-11T13:48:33.841Z,15.00
2018-12-11T13:51:02.512Z,11.93
2018-12-11T13:53:31.141Z,13.60
2018-12-11T13:55:59.756Z,12.40
2018-12-11T13:58:28.373Z,13.90
2018-12-11T14:00:57.028Z,20.13
2018-12-11T14:03:25.809Z,12.60
2018-12-11T14:05:54.429Z,16.23
2018-12-11T14:08:23.062Z,12.67
2018-12-11T14:10:51.676Z,12.60
2018-12-11T14:13:20.310Z,10.40
2018-12-11T14:15:48.949Z,16.70
2018-12-11T14:18:17.601Z,13.50
2018-12-11T14:20:46.235Z,13.43
2018-12-11T14:23:14.896Z,9.00
2018-12-11T14:25:43.534Z,11.70
2018-12-11T14:28:12.977Z,12.80
2018-12-11T14:30:41.616Z,12.33
2018-12-11T14:33:10.249Z,10.83
2018-12-11T14:35:38.904Z,12.77
2018-12-11T14:38:07.541Z,19.37
2018-12-11T14:40:36.200Z,15.27
2018-12-11T14:43:04.843Z,14.87
2018-12-11T14:45:33.487Z,13.93
2018-12-11T14:48:02.141Z,13.43
2018-12-11T14:50:30.837Z,13.83
2018-12-11T14:52:59.494Z,17.20
2018-12-11T14:55:28.123Z,14.13
2018-12-11T14:57:56.774Z,15.07
2018-12-11T15:00:25.395Z,16.73
2018-12-11T15:02:54.275Z,11.10
2018-12-11T15:05:22.930Z,12.00
2018-12-11T15:07:51.865Z,21.47
2018-12-11T15:10:20.639Z,14.53
2018-12-11T15:12:49.914Z,13.67
2018-12-11T15:15:18.529Z,16.57
2018-12-11T15:17:47.154Z,16.73
2018-12-11T15:20:15.866Z,14.67
2018-12-11T15:22:44.494Z,15.17
2018-12-11T15:25:13.135Z,14.03
2018-12-11T15:27:41.730Z,13.70
2018-12-11T15:30:10.351Z,14.63
2018-12-11T15:32:38.961Z,9.53
2018-12-11T15:35:07.565Z,15.93
2018-12-11T15:37:36.186Z,12.37
2018-12-11T15:40:05.558Z,12.87
2018-12-11T15:42:34.370Z,21.40
2018-12-11T15:45:03.137Z,14.03
2018-12-11T15:47:32.012Z,14.77
2018-12-11T15:50:00.859Z,12.03
2018-12-11T15:52:29.533Z,13.37
2018-12-11T15:54:58.297Z,11.77
2018-12-11T15:57:26.945Z,13.60
2018-12-11T15:59:55.605Z,10.87
2018-12-11T16:02:24.307Z,14.40
2018-12-11T16:04:54.120Z,14.73
2018-12-11T16:07:22.802Z,11.47
2018-12-11T16:09:52.356Z,14.50
2018-12-11T16:12:21.755Z,12.90
2018-12-11T16:14:50.483Z,11.97
2018-12-11T16:17:19.747Z,12.00
2018-12-11T16:19:49.861Z,8.33
2018-12-11T16:22:18.675Z,13.17
2018-12-11T16:24:48.597Z,10.83
2018-12-11T16:27:17.731Z,11.80
2018-12-11T16:29:46.623Z,16.40
2018-12-11T16:32:16.045Z,12.30
2018-12-11T16:34:45.833Z,19.50
2018-12-11T16:37:15.059Z,12.80
2018-12-11T16:39:44.320Z,12.83
2018-12-11T16:42:12.936Z,12.97
2018-12-11T16:44:41.558Z,13.87
2018-12-11T16:47:10.672Z,16.57
2018-12-11T16:49:39.286Z,12.47
2018-12-11T16:52:07.986Z,18.13
2018-12-11T16:54:37.280Z,11.03
2018-12-11T16:57:05.958Z,13.23
2018-12-11T16:59:34.579Z,14.67
2018-12-11T17:02:03.360Z,15.37
2018-12-11T17:04:32.107Z,12.13
2018-12-11T17:07:00.749Z,19.03
2018-12-11T17:09:29.384Z,18.13
2018-12-11T17:11:58.334Z,16.73
2018-12-11T17:14:27.138Z,9.60
2018-12-11T17:16:55.906Z,16.17
2018-12-11T17:19:24.571Z,16.83
2018-12-11T17:21:53.311Z,12.37
2018-12-11T17:24:21.934Z,14.83
2018-12-11T17:26:50.562Z,11.03
2018-12-11T17:29:24.107Z,12.30
2018-12-11T17:31:49.942Z,8.03
2018-12-11T17:34:18.581Z,12.73
2018-12-11T17:36:47.322Z,9.23
2018-12-11T17:39:15.928Z,9.60
2018-12-11T17:41:44.607Z,11.33
2018-12-11T17:44:13.503Z,7.43
2018-12-11T17:46:42.130Z,13.03
2018-12-11T17:49:10.749Z,11.63
2018-12-11T17:51:39.386Z,14.13
2018-12-11T17:54:07.995Z,13.73
2018-12-11T17:56:36.865Z,14.90
2018-12-11T17:59:05.661Z,10.90
2018-12-11T18:01:35.717Z,15.43
2018-12-11T18:04:04.474Z,10.33
2018-12-11T18:06:33.256Z,18.30
2018-12-11T18:09:01.876Z,13.97
2018-12-11T18:11:30.488Z,10.60
2018-12-11T18:13:59.080Z,12.30
2018-12-11T18:16:30.639Z,11.37
2018-12-11T18:18:59.252Z,13.10
2018-12-11T18:21:27.883Z,12.37
2018-12-11T18:23:56.498Z,13.97
2018-12-11T18:26:25.115Z,9.83
2018-12-11T18:28:54.435Z,17.70
2018-12-11T18:31:23.073Z,16.87
2018-12-11T18:33:51.722Z,13.90
2018-12-11T18:36:20.810Z,14.80
2018-12-11T18:38:49.691Z,10.93
2018-12-11T18:41:18.330Z,14.70
2018-12-11T18:43:47.021Z,14.30
2018-12-11T18:46:15.666Z,13.07
2018-12-11T18:48:44.365Z,12.63
2018-12-11T18:51:13.094Z,12.17
2018-12-11T18:53:42.707Z,16.80
2018-12-11T18:56:11.769Z,15.33
2018-12-11T18:58:40.497Z,14.23
2018-12-11T19:01:10.051Z,12.63
2018-12-11T19:03:39.864Z,17.60
2018-12-11T19:06:08.659Z,15.40
2018-12-11T19:08:37.485Z,13.13
2018-12-11T19:11:06.233Z,14.40
2018-12-11T19:13:34.986Z,20.93
2018-12-11T19:16:03.738Z,15.60
2018-12-11T19:18:32.863Z,11.13
2018-12-11T19:21:01.766Z,14.90
2018-12-11T19:23:40.712Z,14.47
2018-12-11T19:26:09.666Z,15.03
2018-12-11T19:28:38.414Z,17.13
2018-12-11T19:31:07.229Z,16.03
2018-12-11T19:33:36.912Z,14.33
2018-12-11T19:36:05.800Z,9.53
2018-12-11T19:38:34.434Z,25.27
2018-12-11T19:41:03.104Z,16.83
2018-12-11T19:43:31.776Z,17.30
2018-12-11T19:46:00.436Z,14.83
2018-12-11T19:48:29.080Z,14.33
2018-12-11T19:50:57.739Z,9.07
2018-12-11T19:53:26.374Z,19.50
2018-12-11T19:55:55.002Z,17.53
2018-12-11T19:58:23.860Z,15.30
2018-12-11T20:00:52.715Z,13.80
2018-12-11T20:03:21.353Z,13.27
2018-12-11T20:05:49.966Z,13.47
2018-12-11T20:08:18.593Z,17.87
2018-12-11T20:10:51.369Z,16.60
2018-12-11T20:13:19.966Z,16.00
2018-12-11T20:15:48.658Z,13.43
2018-12-11T20:18:17.402Z,21.53
2018-12-11T20:20:46.702Z,17.07
2018-12-11T20:23:15.311Z,7.33
2018-12-11T20:25:43.925Z,18.90
2018-12-11T20:28:12.533Z,13.83
2018-12-11T20:30:41.151Z,14.97
2018-12-11T20:33:09.738Z,24.60
2018-12-11T20:35:38.370Z,14.60
2018-12-11T20:38:07.161Z,12.80
2018-12-11T20:40:35.799Z,15.53
2018-12-11T20:43:04.681Z,18.43
2018-12-11T20:45:33.294Z,21.90
2018-12-11T20:48:01.981Z,12.60
2018-12-11T20:50:30.683Z,19.87
2018-12-11T20:52:59.346Z,15.10
2018-12-11T20:55:28.027Z,12.87
2018-12-11T20:57:56.680Z,16.87
2018-12-11T21:00:25.335Z,16.77
2018-12-11T21:02:54.046Z,15.00
2018-12-11T21:05:22.702Z,16.63
2018-12-11T21:07:51.638Z,14.00
2018-12-11T21:10:20.282Z,20.13
2018-12-11T21:12:49.109Z,14.40
2018-12-11T21:15:17.794Z,15.13
2018-12-11T21:17:46.593Z,17.57
2018-12-11T21:20:15.313Z,12.40
2018-12-11T21:22:43.953Z,15.23
2018-12-11T21:25:12.631Z,16.00
2018-12-11T21:27:41.321Z,9.20
2018-12-11T21:30:11.074Z,11.40
2018-12-11T21:32:39.718Z,14.87
2018-12-11T21:35:09.532Z,16.90
2018-12-11T21:37:39.059Z,14.20
2018-12-11T21:40:07.992Z,19.07
2018-12-11T21:42:36.614Z,19.77
2018-12-11T21:45:06.297Z,13.47
2018-12-11T21:47:34.941Z,16.70
2018-12-11T21:50:04.327Z,17.17
2018-12-11T21:52:32.972Z,20.13
2018-12-11T21:55:01.571Z,14.00
2018-12-11T21:57:30.199Z,16.60
2018-12-11T21:59:58.886Z,17.07
2018-12-11T22:02:27.501Z,22.20
2018-12-11T22:04:56.339Z,12.53
2018-12-11T22:07:25.129Z,14.30
2018-12-11T22:09:54.266Z,12.10
2018-12-11T22:12:23.352Z,15.53
2018-12-11T22:14:52.064Z,13.30
2018-12-11T22:17:20.815Z,10.00
2018-12-11T22:19:49.785Z,13.90
2018-12-11T22:22:18.447Z,11.43
2018-12-11T22:24:47.070Z,14.87
2018-12-11T22:27:15.699Z,14.70
2018-12-11T22:29:44.374Z,15.90
2018-12-11T22:32:13.021Z,24.43
2018-12-11T22:34:41.669Z,16.47
2018-12-11T22:37:10.311Z,10.67
2018-12-11T22:39:38.965Z,14.67
2018-12-11T22:42:07.591Z,11.83
2018-12-11T22:44:36.247Z,15.93
2018-12-11T22:47:05.034Z,17.53
2018-12-11T22:49:33.646Z,19.87
2018-12-11T22:52:02.276Z,14.57
2018-12-11T22:54:31.057Z,15.10
2018-12-11T22:56:59.721Z,14.97
2018-12-11T22:59:28.354Z,17.70
2018-12-11T23:01:56.997Z,16.83
2018-12-11T23:04:25.636Z,13.47
2018-12-11T23:06:54.312Z,17.30
2018-12-11T23:09:22.940Z,17.40
2018-12-11T23:11:51.587Z,12.73
2018-12-11T23:14:20.248Z,14.73
2018-12-11T23:16:49.024Z,12.30
2018-12-11T23:19:17.661Z,19.23
2018-12-11T23:21:46.282Z,15.93
2018-12-11T23:24:14.900Z,15.73
2018-12-11T23:26:43.547Z,15.23
2018-12-11T23:29:12.166Z,17.27
2018-12-11T23:31:40.783Z,12.40
2018-12-11T23:34:09.426Z,13.93
2018-12-11T23:36:38.057Z,13.73
2018-12-11T23:39:07.490Z,13.33
2018-12-11T23:41:36.102Z,11.77
2018-12-11T23:44:04.738Z,13.97
2018-12-11T23:46:33.380Z,11.73
2018-12-11T23:49:02.067Z,13.13
2018-12-11T23:51:30.720Z,17.23
2018-12-11T23:53:59.343Z,17.57
2018-12-11T23:56:27.976Z,10.40
2018-12-11T23:58:56.637Z,14.53
